Time;durP1;ratioP1;P1;durP2;ratioP2;P2;SDS_P1;SDS_P2;PMS_P1;PMS_P2;Temp;Humidity;BMP_temperature;BMP_pressure;BME280_temperature;BME280_humidity;BME280_pressure;Samples;Min_cycle;Max_cycle;Signal;HPM_P1;HPM_P2
2021/09/20 00:01:46;0.00;0.00;0.62;0.00;0.00;0.62;2.30;1.70;;;24.60;32.10;;;;;;2249513;61;20421;-64
2021/09/20 00:04:32;0.00;0.00;0.62;0.00;0.00;0.62;2.77;2.17;;;24.60;32.10;;;;;;2249813;61;20353;-63
2021/09/20 00:07:17;0.00;0.00;0.62;0.00;0.00;0.62;3.00;2.07;;;24.60;32.10;;;;;;2249839;61;20372;-64
2021/09/20 00:10:03;0.00;0.00;0.62;0.00;0.00;0.62;2.60;1.80;;;24.60;32.10;;;;;;2249291;61;20630;-63
2021/09/20 00:12:49;0.00;0.00;0.62;0.00;0.00;0.62;4.40;2.20;;;24.60;32.20;;;;;;2249974;61;20433;-63
2021/09/20 00:15:34;0.00;0.00;0.62;0.00;0.00;0.62;2.30;2.10;;;24.60;32.20;;;;;;2249683;61;20703;-62
2021/09/20 00:18:19;0.00;0.00;0.62;0.00;0.00;0.62;2.70;2.10;;;24.60;32.20;;;;;;2249441;61;20485;-65
2021/09/20 00:21:05;0.00;0.00;0.62;0.00;0.00;0.62;2.30;1.40;;;24.60;32.20;;;;;;2249967;61;20356;-63
2021/09/20 00:23:50;0.00;0.00;0.62;0.00;0.00;0.62;2.50;1.87;;;24.60;32.20;;;;;;2249323;61;20367;-63
2021/09/20 00:26:34;0.00;0.00;0.62;0.00;0.00;0.62;3.60;2.27;;;24.60;32.20;;;;;;2249399;61;20376;-64
2021/09/20 00:29:19;0.00;0.00;0.62;0.00;0.00;0.62;2.20;2.00;;;24.60;32.20;;;;;;2249251;61;20407;-61
2021/09/20 00:32:04;0.00;0.00;0.62;0.00;0.00;0.62;2.30;1.87;;;24.60;32.30;;;;;;2249462;61;20393;-63
2021/09/20 00:34:49;0.00;0.00;0.62;0.00;0.00;0.62;2.90;1.83;;;24.70;32.40;;;;;;2249454;61;20404;-61
2021/09/20 00:37:35;0.00;0.00;0.62;0.00;0.00;0.62;2.73;1.70;;;24.70;32.40;;;;;;2249635;61;20360;-65
2021/09/20 00:40:20;0.00;0.00;0.62;0.00;0.00;0.62;3.37;1.80;;;24.70;32.30;;;;;;2249306;61;20388;-63
2021/09/20 00:43:04;0.00;0.00;0.62;0.00;0.00;0.62;4.00;2.23;;;24.70;32.30;;;;;;2249857;61;20635;-63
2021/09/20 00:45:49;0.00;0.00;0.62;0.00;0.00;0.62;3.37;2.40;;;24.70;32.30;;;;;;2249330;61;20384;-63
2021/09/20 00:48:33;0.00;0.00;0.62;0.00;0.00;0.62;2.53;1.83;;;24.70;32.30;;;;;;2249820;61;20650;-64
2021/09/20 00:51:18;0.00;0.00;0.62;0.00;0.00;0.62;3.57;2.30;;;24.70;32.20;;;;;;2249547;61;20746;-63
2021/09/20 00:54:04;0.00;0.00;0.62;0.00;0.00;0.62;2.73;1.93;;;24.70;32.20;;;;;;2249370;61;20798;-62
2021/09/20 00:56:49;0.00;0.00;0.62;0.00;0.00;0.62;2.20;2.00;;;24.70;32.90;;;;;;2249806;61;20368;-63
2021/09/20 00:59:34;0.00;0.00;0.62;0.00;0.00;0.62;3.17;1.93;;;24.70;32.10;;;;;;2249602;61;20408;-60
2021/09/20 01:02:19;0.00;0.00;0.62;0.00;0.00;0.62;3.00;2.30;;;24.70;32.10;;;;;;2249261;61;20368;-65
2021/09/20 01:05:05;0.00;0.00;0.62;0.00;0.00;0.62;3.10;2.10;;;24.70;32.10;;;;;;2249665;61;20380;-63
2021/09/20 01:07:50;0.00;0.00;0.62;0.00;0.00;0.62;2.57;1.90;;;24.70;32.10;;;;;;2249707;61;20680;-66
2021/09/20 01:10:35;0.00;0.00;0.62;0.00;0.00;0.62;2.63;2.03;;;24.70;32.10;;;;;;2249638;61;20360;-66
2021/09/20 01:13:20;0.00;0.00;0.62;0.00;0.00;0.62;3.53;2.20;;;24.70;32.10;;;;;;2249396;61;20356;-63
2021/09/20 01:16:05;0.00;0.00;0.62;0.00;0.00;0.62;2.50;2.20;;;24.70;32.10;;;;;;2249329;61;20392;-64
2021/09/20 01:18:49;0.00;0.00;0.62;0.00;0.00;0.62;2.40;2.20;;;24.70;32.10;;;;;;2249608;61;20413;-63
2021/09/20 01:21:34;0.00;0.00;0.62;0.00;0.00;0.62;2.67;2.03;;;24.70;32.10;;;;;;2249562;61;20381;-65
2021/09/20 01:24:20;0.00;0.00;0.62;0.00;0.00;0.62;2.43;2.17;;;24.70;32.10;;;;;;2248999;61;20353;-64
2021/09/20 01:27:05;0.00;0.00;0.62;0.00;0.00;0.62;3.00;2.40;;;24.70;32.10;;;;;;2249795;61;20428;-65
2021/09/20 01:29:50;0.00;0.00;0.62;0.00;0.00;0.62;3.10;2.53;;;24.70;32.10;;;;;;2249535;61;20356;-63
2021/09/20 01:32:35;0.00;0.00;0.62;0.00;0.00;0.62;2.80;2.00;;;24.70;32.10;;;;;;2249345;61;20368;-65
2021/09/20 01:35:22;0.00;0.00;0.62;0.00;0.00;0.62;2.37;2.00;;;24.70;32.10;;;;;;2249741;61;20480;-61
2021/09/20 01:38:07;0.00;0.00;0.62;0.00;0.00;0.62;2.67;2.33;;;24.70;32.20;;;;;;2249170;61;20376;-66
2021/09/20 01:40:53;0.00;0.00;0.62;0.00;0.00;0.62;2.83;2.53;;;24.70;32.10;;;;;;2249647;61;20368;-65
2021/09/20 01:43:37;0.00;0.00;0.62;0.00;0.00;0.62;2.30;2.10;;;24.70;32.10;;;;;;2249447;61;20365;-65
2021/09/20 01:46:22;0.00;0.00;0.62;0.00;0.00;0.62;2.30;2.10;;;24.70;32.20;;;;;;2248899;61;20381;-64
2021/09/20 01:49:06;0.00;0.00;0.62;0.00;0.00;0.62;2.10;1.80;;;24.70;32.10;;;;;;2249896;61;20449;-65
2021/09/20 01:51:51;0.00;0.00;0.62;0.00;0.00;0.62;2.73;2.03;;;24.70;32.20;;;;;;2249403;61;20365;-64
2021/09/20 01:54:36;0.00;0.00;0.62;0.00;0.00;0.62;3.50;2.03;;;24.70;32.10;;;;;;2248946;61;20387;-66
2021/09/20 01:57:23;0.00;0.00;0.62;0.00;0.00;0.62;2.17;1.77;;;24.70;32.10;;;;;;2249888;61;20407;-64
2021/09/20 02:00:11;0.00;0.00;0.62;0.00;0.00;0.62;2.47;2.10;;;24.70;32.20;;;;;;2249192;61;20485;-61
2021/09/20 02:02:56;0.00;0.00;0.62;0.00;0.00;0.62;2.40;1.80;;;24.70;32.10;;;;;;2249744;61;20494;-64
2021/09/20 02:05:40;0.00;0.00;0.62;0.00;0.00;0.62;2.27;1.70;;;24.70;32.20;;;;;;2249467;61;20404;-63
2021/09/20 02:08:25;0.00;0.00;0.62;0.00;0.00;0.62;2.20;1.73;;;24.70;32.20;;;;;;2249295;61;20421;-65
2021/09/20 02:11:10;0.00;0.00;0.62;0.00;0.00;0.62;2.27;1.80;;;24.70;32.20;;;;;;2250542;61;20365;-62
2021/09/20 02:13:56;0.00;0.00;0.62;0.00;0.00;0.62;4.03;2.30;;;24.70;32.10;;;;;;2250015;61;20389;-63
2021/09/20 02:16:41;0.00;0.00;0.62;0.00;0.00;0.62;3.67;2.00;;;24.70;32.10;;;;;;2249790;61;20874;-64
2021/09/20 02:19:25;0.00;0.00;0.62;0.00;0.00;0.62;2.53;2.00;;;24.70;32.10;;;;;;2250412;61;20716;-64
2021/09/20 02:22:10;0.00;0.00;0.62;0.00;0.00;0.62;2.27;1.87;;;24.60;32.00;;;;;;2249767;61;20701;-61
2021/09/20 02:24:55;0.00;0.00;0.62;0.00;0.00;0.62;2.90;2.20;;;24.70;32.10;;;;;;2250082;61;20384;-65
2021/09/20 02:27:39;0.00;0.00;0.62;0.00;0.00;0.62;2.37;2.10;;;24.70;32.10;;;;;;2250101;61;20359;-64
2021/09/20 02:30:25;0.00;0.00;0.62;0.00;0.00;0.62;2.30;1.80;;;24.70;32.10;;;;;;2249789;61;20412;-65
2021/09/20 02:33:09;0.00;0.00;0.62;0.00;0.00;0.62;1.93;1.73;;;24.60;32.00;;;;;;2250243;61;20364;-63
2021/09/20 02:35:54;0.00;0.00;0.62;0.00;0.00;0.62;3.87;2.20;;;24.60;32.00;;;;;;2249888;61;20484;-61
2021/09/20 02:38:39;0.00;0.00;0.62;0.00;0.00;0.62;3.20;2.03;;;24.60;32.00;;;;;;2249630;61;20352;-62
2021/09/20 02:41:24;0.00;0.00;0.62;0.00;0.00;0.62;1.87;1.60;;;24.60;32.00;;;;;;2250353;61;20368;-64
2021/09/20 02:44:09;0.00;0.00;0.62;0.00;0.00;0.62;2.83;1.90;;;24.60;32.00;;;;;;2249870;61;20389;-64
2021/09/20 02:46:54;0.00;0.00;0.62;0.00;0.00;0.62;2.33;1.93;;;24.60;32.00;;;;;;2250128;61;20365;-64
2021/09/20 02:49:39;0.00;0.00;0.62;0.00;0.00;0.62;2.70;2.40;;;24.60;32.00;;;;;;2250022;61;20472;-64
2021/09/20 02:52:24;0.00;0.00;0.62;0.00;0.00;0.62;2.07;1.70;;;24.60;32.00;;;;;;2249981;61;20404;-64
2021/09/20 02:55:10;0.00;0.00;0.62;0.00;0.00;0.62;2.33;1.77;;;24.60;32.00;;;;;;2250104;61;20417;-61
2021/09/20 02:57:55;0.00;0.00;0.62;0.00;0.00;0.62;2.23;1.83;;;24.60;32.00;;;;;;2249924;61;20368;-62
2021/09/20 03:00:39;0.00;0.00;0.62;0.00;0.00;0.62;3.00;1.90;;;24.60;32.00;;;;;;2249592;61;20360;-62
2021/09/20 03:03:26;0.00;0.00;0.62;0.00;0.00;0.62;2.40;1.77;;;24.60;32.00;;;;;;2250128;61;20364;-63
2021/09/20 03:06:10;0.00;0.00;0.62;0.00;0.00;0.62;2.27;1.60;;;24.60;32.00;;;;;;2249952;61;20381;-62
2021/09/20 03:08:55;0.00;0.00;0.62;0.00;0.00;0.62;2.00;1.57;;;24.60;32.00;;;;;;2250136;61;20391;-66
2021/09/20 03:11:39;0.00;0.00;0.62;0.00;0.00;0.62;2.40;1.93;;;24.60;32.00;;;;;;2249801;61;20454;-63
2021/09/20 03:14:23;0.00;0.00;0.62;0.00;0.00;0.62;2.07;1.80;;;24.60;32.00;;;;;;2249600;61;20679;-66
2021/09/20 03:17:08;0.00;0.00;0.62;0.00;0.00;0.62;2.20;1.73;;;24.60;32.00;;;;;;2250055;61;20446;-65
2021/09/20 03:19:54;0.00;0.00;0.62;0.00;0.00;0.62;2.17;1.60;;;24.60;32.00;;;;;;2249755;61;20365;-64
2021/09/20 03:22:38;0.00;0.00;0.62;0.00;0.00;0.62;2.20;1.97;;;24.60;32.00;;;;;;2249535;61;20361;-65
2021/09/20 03:25:23;0.00;0.00;0.62;0.00;0.00;0.62;2.40;1.73;;;24.60;32.00;;;;;;2250046;61;20760;-65
2021/09/20 03:28:08;0.00;0.00;0.62;0.00;0.00;0.62;2.23;1.80;;;24.60;32.00;;;;;;2249576;61;20577;-65
2021/09/20 03:30:52;0.00;0.00;0.62;0.00;0.00;0.62;3.00;1.87;;;24.60;32.00;;;;;;2249607;61;20396;-62
2021/09/20 03:33:37;0.00;0.00;0.62;0.00;0.00;0.62;1.90;1.40;;;24.60;31.90;;;;;;2249660;61;20405;-64
2021/09/20 03:36:23;0.00;0.00;0.62;0.00;0.00;0.62;1.80;1.50;;;24.60;32.00;;;;;;2249681;61;20373;-66
2021/09/20 03:39:07;0.00;0.00;0.62;0.00;0.00;0.62;1.80;1.40;;;24.60;31.90;;;;;;2249939;61;20785;-66
2021/09/20 03:41:52;0.00;0.00;0.62;0.00;0.00;0.62;2.30;1.97;;;24.60;31.90;;;;;;2249860;61;20420;-64
2021/09/20 03:44:36;0.00;0.00;0.62;0.00;0.00;0.62;2.53;1.70;;;24.60;31.90;;;;;;2249362;61;20369;-63
2021/09/20 03:47:21;0.00;0.00;0.62;0.00;0.00;0.62;2.53;1.63;;;24.60;31.90;;;;;;2249661;61;20360;-64
2021/09/20 03:50:10;0.00;0.00;0.62;0.00;0.00;0.62;2.07;1.70;;;24.60;31.90;;;;;;2249743;61;20352;-62
2021/09/20 03:52:56;0.00;0.00;0.62;0.00;0.00;0.62;2.30;1.90;;;24.60;31.90;;;;;;2249326;61;20745;-66
2021/09/20 03:55:40;0.00;0.00;0.62;0.00;0.00;0.62;2.43;1.77;;;24.60;31.90;;;;;;2250050;61;20513;-65
2021/09/20 03:58:25;0.00;0.00;0.62;0.00;0.00;0.62;2.27;1.87;;;24.50;31.80;;;;;;2249451;61;20447;-62
2021/09/20 04:01:10;0.00;0.00;0.62;0.00;0.00;0.62;2.40;1.57;;;24.60;32.00;;;;;;2249911;61;20352;-62
2021/09/20 04:03:54;0.00;0.00;0.62;0.00;0.00;0.62;2.17;1.70;;;24.50;31.90;;;;;;2249680;61;20587;-64
2021/09/20 04:06:39;0.00;0.00;0.62;0.00;0.00;0.62;1.90;1.70;;;24.50;31.90;;;;;;2249465;61;20387;-66
2021/09/20 04:09:25;0.00;0.00;0.62;0.00;0.00;0.62;3.17;2.17;;;24.50;31.90;;;;;;2250090;61;20725;-66
2021/09/20 04:12:10;0.00;0.00;0.62;0.00;0.00;0.62;2.30;1.63;;;24.50;31.90;;;;;;2249649;61;20440;-64
2021/09/20 04:14:54;0.00;0.00;0.62;0.00;0.00;0.62;3.07;1.73;;;24.50;31.90;;;;;;2249201;61;20432;-64
2021/09/20 04:17:39;0.00;0.00;0.62;0.00;0.00;0.62;1.90;1.53;;;24.50;31.90;;;;;;2250161;61;20395;-66
2021/09/20 04:20:23;0.00;0.00;0.62;0.00;0.00;0.62;2.50;1.60;;;24.50;31.90;;;;;;2249492;61;20705;-64
2021/09/20 04:23:08;0.00;0.00;0.62;0.00;0.00;0.62;2.10;1.83;;;24.50;31.90;;;;;;2249757;61;20400;-65
2021/09/20 04:25:54;0.00;0.00;0.62;0.00;0.00;0.62;2.70;2.07;;;24.50;31.90;;;;;;2249315;61;20376;-63
2021/09/20 04:28:39;0.00;0.00;0.62;0.00;0.00;0.62;2.10;1.57;;;24.50;31.90;;;;;;2249492;61;20368;-63
2021/09/20 04:31:23;0.00;0.00;0.62;0.00;0.00;0.62;3.00;2.20;;;24.50;31.90;;;;;;2249821;61;20368;-64
2021/09/20 04:34:08;0.00;0.00;0.62;0.00;0.00;0.62;2.20;1.90;;;24.50;31.90;;;;;;2249538;61;20443;-65
2021/09/20 04:36:53;0.00;0.00;0.62;0.00;0.00;0.62;2.53;1.80;;;24.50;31.90;;;;;;2249115;61;20441;-63
2021/09/20 04:39:38;0.00;0.00;0.62;0.00;0.00;0.62;2.53;2.00;;;24.50;31.90;;;;;;2250042;61;20412;-64
2021/09/20 04:42:24;0.00;0.00;0.62;0.00;0.00;0.62;3.37;1.70;;;24.50;31.90;;;;;;2249671;61;20384;-63
2021/09/20 04:45:09;0.00;0.00;0.62;0.00;0.00;0.62;2.57;1.50;;;24.50;31.90;;;;;;2249662;61;20379;-61
2021/09/20 04:47:53;0.00;0.00;0.62;0.00;0.00;0.62;2.10;1.90;;;24.50;31.90;;;;;;2249766;61;20383;-65
2021/09/20 04:50:39;0.00;0.00;0.62;0.00;0.00;0.62;3.53;2.00;;;24.50;31.90;;;;;;2249188;61;20433;-63
2021/09/20 04:53:24;0.00;0.00;0.62;0.00;0.00;0.62;2.40;1.87;;;24.50;31.80;;;;;;2249707;61;20604;-64
2021/09/20 04:56:09;0.00;0.00;0.62;0.00;0.00;0.62;2.90;2.00;;;24.50;31.80;;;;;;2249576;61;20478;-62
2021/09/20 04:58:55;0.00;0.00;0.62;0.00;0.00;0.62;2.23;1.80;;;24.50;31.80;;;;;;2249083;61;20397;-63
2021/09/20 05:01:39;0.00;0.00;0.62;0.00;0.00;0.62;3.87;2.00;;;24.50;31.70;;;;;;2250016;61;20368;-63
2021/09/20 05:04:24;0.00;0.00;0.62;0.00;0.00;0.62;2.33;1.90;;;24.50;31.70;;;;;;2249267;61;20649;-61
2021/09/20 05:07:08;0.00;0.00;0.62;0.00;0.00;0.62;2.70;1.60;;;24.50;31.70;;;;;;2249317;61;20396;-63
2021/09/20 05:09:52;0.00;0.00;0.62;0.00;0.00;0.62;2.10;1.70;;;24.50;31.70;;;;;;2249962;61;20408;-63
2021/09/20 05:12:37;0.00;0.00;0.62;0.00;0.00;0.62;2.33;2.07;;;24.40;31.70;;;;;;2249167;61;20627;-64
2021/09/20 05:15:23;0.00;0.00;0.62;0.00;0.00;0.62;2.23;1.50;;;24.40;31.70;;;;;;2249257;61;20420;-65
2021/09/20 05:18:08;0.00;0.00;0.62;0.00;0.00;0.62;2.60;1.83;;;24.40;31.70;;;;;;2249409;61;20364;-63
2021/09/20 05:20:53;0.00;0.00;0.62;0.00;0.00;0.62;2.70;1.53;;;24.40;31.70;;;;;;2249052;61;20440;-62
2021/09/20 05:23:37;0.00;0.00;0.62;0.00;0.00;0.62;4.00;1.80;;;24.40;31.70;;;;;;2249796;61;20453;-63
2021/09/20 05:26:22;0.00;0.00;0.62;0.00;0.00;0.62;2.43;2.23;;;24.40;31.70;;;;;;2249410;61;20420;-64
2021/09/20 05:29:06;0.00;0.00;0.62;0.00;0.00;0.62;2.40;2.13;;;24.40;31.80;;;;;;2248283;61;20380;-63
2021/09/20 05:31:52;0.00;0.00;0.62;0.00;0.00;0.62;2.80;1.80;;;24.40;31.80;;;;;;2249717;61;20408;-62
2021/09/20 05:34:37;0.00;0.00;0.62;0.00;0.00;0.62;2.90;2.10;;;24.40;31.80;;;;;;2249054;61;20439;-64
2021/09/20 05:37:21;0.00;0.00;0.62;0.00;0.00;0.62;1.97;1.50;;;24.40;31.90;;;;;;2249481;61;20395;-62
2021/09/20 05:40:08;0.00;0.00;0.62;0.00;0.00;0.62;1.60;1.30;;;24.40;31.90;;;;;;2249442;61;20772;-62
2021/09/20 05:42:56;0.00;0.00;0.62;0.00;0.00;0.62;4.70;1.90;;;24.40;31.90;;;;;;2249445;61;20368;-64
2021/09/20 05:45:41;0.00;0.00;0.62;0.00;0.00;0.62;2.13;1.63;;;24.40;31.90;;;;;;2250626;61;20389;-66
2021/09/20 05:48:27;0.00;0.00;0.62;0.00;0.00;0.62;2.30;1.80;;;24.40;31.90;;;;;;2250003;61;20388;-61
2021/09/20 05:51:11;0.00;0.00;0.62;0.00;0.00;0.62;3.27;2.07;;;24.40;31.90;;;;;;2249768;61;20480;-60
2021/09/20 05:53:56;0.00;0.00;0.62;0.00;0.00;0.62;2.77;1.87;;;24.40;32.00;;;;;;2250264;61;20379;-63
2021/09/20 05:56:40;0.00;0.00;0.62;0.00;0.00;0.62;2.10;1.63;;;24.50;32.00;;;;;;2249775;61;20428;-61
2021/09/20 05:59:26;0.00;0.00;0.62;0.00;0.00;0.62;2.50;1.63;;;24.40;32.00;;;;;;2250318;61;20368;-62
2021/09/20 06:02:11;0.00;0.00;0.62;0.00;0.00;0.62;1.97;1.40;;;24.50;32.00;;;;;;2250415;61;20360;-63
2021/09/20 06:04:57;0.00;0.00;0.62;0.00;0.00;0.62;2.67;1.87;;;24.40;31.90;;;;;;2249878;61;20736;-61
2021/09/20 06:07:42;0.00;0.00;0.62;0.00;0.00;0.62;2.50;1.57;;;24.40;31.90;;;;;;2250462;61;20372;-62
2021/09/20 06:10:27;0.00;0.00;0.62;0.00;0.00;0.62;3.27;1.63;;;24.40;31.90;;;;;;2250188;61;20380;-57
2021/09/20 06:13:11;0.00;0.00;0.62;0.00;0.00;0.62;2.20;1.63;;;24.40;31.90;;;;;;2249559;61;20423;-60
2021/09/20 06:15:56;0.00;0.00;0.62;0.00;0.00;0.62;2.13;1.40;;;24.40;31.80;;;;;;2250352;61;20399;-61
2021/09/20 06:18:41;0.00;0.00;0.62;0.00;0.00;0.62;2.37;1.63;;;24.50;31.90;;;;;;2250216;61;20566;-59
2021/09/20 06:21:27;0.00;0.00;0.62;0.00;0.00;0.62;2.50;1.70;;;24.50;31.90;;;;;;2249752;61;20368;-61
2021/09/20 06:24:12;0.00;0.00;0.62;0.00;0.00;0.62;2.60;1.63;;;24.40;31.80;;;;;;2250060;61;20454;-63
2021/09/20 06:26:56;0.00;0.00;0.62;0.00;0.00;0.62;2.80;2.03;;;24.40;31.80;;;;;;2249849;61;20384;-64
2021/09/20 06:29:41;0.00;0.00;0.62;0.00;0.00;0.62;2.60;1.50;;;24.50;31.90;;;;;;2250145;61;20404;-64
2021/09/20 06:32:26;0.00;0.00;0.62;0.00;0.00;0.62;2.20;1.80;;;24.50;32.00;;;;;;2250034;61;20388;-65
2021/09/20 06:35:12;0.00;0.00;0.62;0.00;0.00;0.62;3.00;1.77;;;24.50;32.00;;;;;;2249368;61;20396;-62
2021/09/20 06:37:59;0.00;0.00;0.62;0.00;0.00;0.62;2.83;1.77;;;24.50;32.00;;;;;;2250217;61;20740;-62
2021/09/20 06:40:43;0.00;0.00;0.62;0.00;0.00;0.62;2.47;1.80;;;24.50;32.00;;;;;;2250029;61;20380;-60
2021/09/20 06:43:28;0.00;0.00;0.62;0.00;0.00;0.62;2.00;1.80;;;24.50;32.00;;;;;;2249913;61;20360;-62
2021/09/20 06:46:12;0.00;0.00;0.62;0.00;0.00;0.62;2.77;1.80;;;24.50;32.00;;;;;;2250029;61;20657;-62
2021/09/20 06:48:58;0.00;0.00;0.62;0.00;0.00;0.62;1.63;1.30;;;24.50;31.90;;;;;;2249669;61;20365;-64
2021/09/20 06:51:43;0.00;0.00;0.62;0.00;0.00;0.62;2.50;1.90;;;24.50;31.90;;;;;;2250109;61;20408;-61
2021/09/20 06:54:29;0.00;0.00;0.62;0.00;0.00;0.62;3.13;1.87;;;24.50;31.90;;;;;;2249666;61;20760;-63
2021/09/20 06:57:13;0.00;0.00;0.62;0.00;0.00;0.62;3.63;1.87;;;24.50;32.00;;;;;;2249611;61;20420;-59
2021/09/20 06:59:58;0.00;0.00;0.62;0.00;0.00;0.62;4.30;2.40;;;24.50;31.90;;;;;;2250281;61;20369;-62
2021/09/20 07:02:42;0.00;0.00;0.62;0.00;0.00;0.62;3.10;1.80;;;24.50;31.90;;;;;;2249981;61;20567;-62
2021/09/20 07:05:27;0.00;0.00;0.62;0.00;0.00;0.62;1.80;1.50;;;24.50;31.80;;;;;;2249558;61;20424;-64
2021/09/20 07:08:12;0.00;0.00;0.62;0.00;0.00;0.62;2.10;1.73;;;24.50;31.80;;;;;;2250279;61;20753;-64
2021/09/20 07:10:58;0.00;0.00;0.62;0.00;0.00;0.62;2.20;1.87;;;24.50;31.70;;;;;;2249594;61;20766;-61
2021/09/20 07:13:42;0.00;0.00;0.62;0.00;0.00;0.62;2.43;1.60;;;24.50;31.70;;;;;;2250033;61;20570;-62
2021/09/20 07:16:27;0.00;0.00;0.62;0.00;0.00;0.62;3.83;1.70;;;24.50;31.70;;;;;;2248417;61;20432;-62
2021/09/20 07:19:11;0.00;0.00;0.62;0.00;0.00;0.62;3.67;1.93;;;24.50;31.70;;;;;;2249197;61;20361;-63
2021/09/20 07:21:56;0.00;0.00;0.62;0.00;0.00;0.62;2.73;2.07;;;24.50;31.70;;;;;;2250085;61;20737;-62
2021/09/20 07:24:40;0.00;0.00;0.62;0.00;0.00;0.62;3.27;2.00;;;24.50;31.70;;;;;;2249645;61;20769;-62
2021/09/20 07:27:26;0.00;0.00;0.62;0.00;0.00;0.62;3.60;2.43;;;24.50;31.70;;;;;;2249545;61;20398;-62
2021/09/20 07:30:16;0.00;0.00;0.62;0.00;0.00;0.62;5.13;3.07;;;24.50;31.70;;;;;;2250129;61;20583;-62
2021/09/20 07:33:01;0.00;0.00;0.62;0.00;0.00;0.62;4.20;2.53;;;24.50;31.70;;;;;;2248863;61;20405;-61
2021/09/20 07:35:45;0.00;0.00;0.62;0.00;0.00;0.62;3.50;2.60;;;24.50;31.70;;;;;;2250172;61;20830;-59
2021/09/20 07:38:30;0.00;0.00;0.62;0.00;0.00;0.62;3.40;2.70;;;24.50;31.70;;;;;;2249650;61;20740;-61
2021/09/20 07:41:15;0.00;0.00;0.62;0.00;0.00;0.62;3.60;2.43;;;24.50;31.70;;;;;;2249530;61;20477;-62
2021/09/20 07:44:02;0.00;0.00;0.62;0.00;0.00;0.62;3.40;2.83;;;24.50;31.60;;;;;;2250038;61;20369;-59
2021/09/20 07:46:47;0.00;0.00;0.62;0.00;0.00;0.62;2.83;2.50;;;24.50;31.60;;;;;;2249707;61;20368;-60
2021/09/20 07:49:32;0.00;0.00;0.62;0.00;0.00;0.62;3.83;3.27;;;24.50;31.60;;;;;;2249625;61;20361;-62
2021/09/20 07:52:17;0.00;0.00;0.62;0.00;0.00;0.62;3.50;2.63;;;24.50;31.50;;;;;;2250013;61;20745;-62
2021/09/20 07:55:05;0.00;0.00;0.62;0.00;0.00;0.62;3.50;2.67;;;24.50;31.50;;;;;;2249221;61;20437;-60
2021/09/20 07:57:49;0.00;0.00;0.62;0.00;0.00;0.62;4.10;2.97;;;24.50;31.50;;;;;;2250148;61;20592;-62
2021/09/20 08:00:40;0.00;0.00;0.62;0.00;0.00;0.62;3.83;2.60;;;24.50;31.50;;;;;;2249805;61;20356;-62
2021/09/20 08:03:25;0.00;0.00;0.62;0.00;0.00;0.62;3.23;2.60;;;24.50;31.50;;;;;;2249240;61;20713;-61
2021/09/20 08:06:10;0.00;0.00;0.62;0.00;0.00;0.62;2.60;2.40;;;24.50;31.50;;;;;;2250024;61;20436;-61
2021/09/20 08:08:54;0.00;0.00;0.62;0.00;0.00;0.62;2.93;2.47;;;24.50;31.40;;;;;;2249766;61;20412;-61
2021/09/20 08:11:39;0.00;0.00;0.62;0.00;0.00;0.62;4.30;2.93;;;24.50;31.50;;;;;;2249424;61;20393;-61
2021/09/20 08:14:24;0.00;0.00;0.62;0.00;0.00;0.62;2.77;1.93;;;24.50;31.50;;;;;;2249899;61;20364;-61
2021/09/20 08:17:12;0.00;0.00;0.62;0.00;0.00;0.62;3.50;2.37;;;24.50;31.50;;;;;;2249559;61;20492;-59
2021/09/20 08:19:56;0.00;0.00;0.62;0.00;0.00;0.62;2.60;2.27;;;24.50;31.40;;;;;;2249966;61;20376;-61
2021/09/20 08:22:41;0.00;0.00;0.62;0.00;0.00;0.62;3.20;2.40;;;24.50;31.40;;;;;;2249778;61;20762;-61
2021/09/20 08:25:26;0.00;0.00;0.62;0.00;0.00;0.62;3.30;2.30;;;24.50;31.40;;;;;;2249363;61;20439;-61
2021/09/20 08:28:11;0.00;0.00;0.62;0.00;0.00;0.62;3.10;2.20;;;24.50;31.40;;;;;;2250081;61;20364;-61
2021/09/20 08:30:56;0.00;0.00;0.62;0.00;0.00;0.62;3.03;2.27;;;24.50;31.40;;;;;;2249652;61;20361;-62
2021/09/20 08:33:42;0.00;0.00;0.62;0.00;0.00;0.62;2.80;2.10;;;24.50;31.40;;;;;;2249189;61;20657;-60
2021/09/20 08:36:27;0.00;0.00;0.62;0.00;0.00;0.62;2.73;2.20;;;24.50;31.40;;;;;;2250045;61;20404;-61
2021/09/20 08:39:12;0.00;0.00;0.62;0.00;0.00;0.62;2.83;1.80;;;24.50;31.40;;;;;;2249582;61;20368;-61
2021/09/20 08:41:57;0.00;0.00;0.62;0.00;0.00;0.62;2.13;1.93;;;24.50;31.40;;;;;;2249626;61;20438;-61
2021/09/20 08:44:41;0.00;0.00;0.62;0.00;0.00;0.62;2.70;2.20;;;24.50;31.40;;;;;;2249497;61;20384;-61
2021/09/20 08:47:26;0.00;0.00;0.62;0.00;0.00;0.62;2.93;2.27;;;24.40;31.30;;;;;;2249279;61;20365;-61
2021/09/20 08:50:15;0.00;0.00;0.62;0.00;0.00;0.62;3.00;1.93;;;24.50;31.40;;;;;;2249955;61;20772;-62
2021/09/20 08:53:02;0.00;0.00;0.62;0.00;0.00;0.62;3.77;1.80;;;24.50;31.40;;;;;;2249420;61;20369;-60
2021/09/20 08:55:47;0.00;0.00;0.62;0.00;0.00;0.62;2.50;1.87;;;24.50;31.40;;;;;;2249279;61;20611;-59
2021/09/20 08:58:32;0.00;0.00;0.62;0.00;0.00;0.62;2.13;1.70;;;24.50;31.40;;;;;;2249965;61;20396;-62
2021/09/20 09:01:17;0.00;0.00;0.62;0.00;0.00;0.62;2.63;1.90;;;24.50;31.40;;;;;;2249488;61;20369;-60
2021/09/20 09:04:30;0.00;0.00;0.62;0.00;0.00;0.62;2.17;1.77;;;24.50;31.40;;;;;;2249531;61;20345;-59
2021/09/20 09:07:18;0.00;0.00;0.62;0.00;0.00;0.62;2.90;1.60;;;24.40;31.30;;;;;;2251842;61;20408;-59
2021/09/20 09:10:07;0.00;0.00;0.62;0.00;0.00;0.62;2.93;1.93;;;24.50;31.40;;;;;;2249233;61;20364;-59
2021/09/20 09:12:54;0.00;0.00;0.62;0.00;0.00;0.62;2.80;2.00;;;24.50;31.40;;;;;;2249755;61;20601;-62
2021/09/20 09:15:45;0.00;0.00;0.62;0.00;0.00;0.62;2.30;1.90;;;24.50;31.40;;;;;;2249351;61;20404;-61
2021/09/20 09:18:50;0.00;0.00;0.62;0.00;0.00;0.62;3.03;2.00;;;24.50;31.40;;;;;;2249251;61;20437;-61
2021/09/20 09:21:37;0.00;0.00;0.62;0.00;0.00;0.62;2.83;1.97;;;24.50;31.40;;;;;;2249696;61;20780;-61
2021/09/20 09:24:24;0.00;0.00;0.62;0.00;0.00;0.62;2.33;1.87;;;24.50;31.40;;;;;;2249139;61;20368;-61
2021/09/20 09:27:09;0.00;0.00;0.62;0.00;0.00;0.62;1.77;1.40;;;24.50;31.40;;;;;;2249833;61;20360;-61
2021/09/20 09:30:04;0.00;0.00;0.62;0.00;0.00;0.62;3.00;1.97;;;24.50;31.40;;;;;;2249478;61;20384;-60
2021/09/20 09:33:03;0.00;0.00;0.62;0.00;0.00;0.62;2.77;1.97;;;24.50;31.40;;;;;;2249178;61;20584;-61
2021/09/20 09:35:51;0.00;0.00;0.62;0.00;0.00;0.62;1.90;1.50;;;24.50;31.30;;;;;;2249739;61;20456;-61
2021/09/20 09:38:35;0.00;0.00;0.62;0.00;0.00;0.62;2.60;1.80;;;24.50;31.40;;;;;;2249292;61;20567;-61
2021/09/20 09:41:32;0.00;0.00;0.62;0.00;0.00;0.62;2.40;1.70;;;24.50;31.30;;;;;;2249756;61;20758;-60
2021/09/20 09:44:18;0.00;0.00;0.62;0.00;0.00;0.62;2.37;1.70;;;24.50;31.40;;;;;;2249309;61;20404;-61
2021/09/20 09:47:03;0.00;0.00;0.62;0.00;0.00;0.62;2.23;2.00;;;24.50;32.00;;;;;;2249299;61;20361;-60
2021/09/20 09:49:47;0.00;0.00;0.62;0.00;0.00;0.62;2.60;2.00;;;24.50;31.30;;;;;;2249708;61;20417;-60
2021/09/20 09:52:37;0.00;0.00;0.62;0.00;0.00;0.62;3.03;1.90;;;24.50;31.30;;;;;;2249413;61;20356;-61
2021/09/20 09:55:24;0.00;0.00;0.62;0.00;0.00;0.62;1.93;1.53;;;24.50;31.30;;;;;;2249228;61;20401;-61
2021/09/20 09:58:11;0.00;0.00;0.62;0.00;0.00;0.62;2.60;1.97;;;24.50;31.30;;;;;;2249599;61;20379;-62
2021/09/20 10:01:14;0.00;0.00;0.62;0.00;0.00;0.62;2.70;1.90;;;24.50;31.30;;;;;;2249076;61;20500;-62
2021/09/20 10:04:09;0.00;0.00;0.62;0.00;0.00;0.62;2.30;1.93;;;24.50;31.30;;;;;;2249610;61;20485;-62
2021/09/20 10:06:56;0.00;0.00;0.62;0.00;0.00;0.62;2.60;1.90;;;24.50;31.30;;;;;;2249061;61;20380;-62
2021/09/20 10:09:40;0.00;0.00;0.62;0.00;0.00;0.62;2.60;1.60;;;24.60;31.40;;;;;;2249224;61;20364;-61
2021/09/20 10:12:28;0.00;0.00;0.62;0.00;0.00;0.62;2.10;1.63;;;24.50;31.30;;;;;;2249214;61;20364;-62
2021/09/20 10:15:17;0.00;0.00;0.62;0.00;0.00;0.62;2.20;1.50;;;24.60;31.40;;;;;;2249390;61;20496;-63
2021/09/20 10:18:02;0.00;0.00;0.62;0.00;0.00;0.62;4.60;1.57;;;24.60;31.40;;;;;;2249383;61;20361;-61
2021/09/20 10:20:47;0.00;0.00;0.62;0.00;0.00;0.62;3.27;1.87;;;24.60;31.30;;;;;;2249586;61;20397;-61
2021/09/20 10:23:32;0.00;0.00;0.62;0.00;0.00;0.62;2.57;1.80;;;24.60;31.30;;;;;;2249031;61;20408;-61
2021/09/20 10:26:17;0.00;0.00;0.62;0.00;0.00;0.62;4.20;1.80;;;24.60;31.30;;;;;;2249660;61;20379;-62
2021/09/20 10:29:04;0.00;0.00;0.62;0.00;0.00;0.62;2.93;1.80;;;24.60;31.30;;;;;;2249541;61;20400;-62
2021/09/20 10:31:51;0.00;0.00;0.62;0.00;0.00;0.62;2.90;1.60;;;24.60;31.30;;;;;;2249721;61;20580;-61
2021/09/20 10:34:36;0.00;0.00;0.62;0.00;0.00;0.62;1.80;1.47;;;24.60;31.30;;;;;;2250107;61;20484;-61
2021/09/20 10:37:24;0.00;0.00;0.62;0.00;0.00;0.62;2.23;1.37;;;24.60;31.20;;;;;;2250095;61;20396;-61
2021/09/20 10:40:10;0.00;0.00;0.62;0.00;0.00;0.62;2.67;1.37;;;24.60;31.10;;;;;;2249994;61;20416;-61
2021/09/20 10:43:02;0.00;0.00;0.62;0.00;0.00;0.62;2.70;1.70;;;24.70;31.20;;;;;;2250281;61;20360;-61
2021/09/20 10:45:56;0.00;0.00;0.62;0.00;0.00;0.62;1.70;1.20;;;24.70;31.10;;;;;;2249746;61;20605;-61
2021/09/20 10:48:54;0.00;0.00;0.62;0.00;0.00;0.62;2.33;1.80;;;24.70;31.10;;;;;;2250268;61;20392;-59
2021/09/20 10:51:40;0.00;0.00;0.62;0.00;0.00;0.62;2.23;1.37;;;24.70;31.10;;;;;;2249570;61;20365;-59
2021/09/20 10:54:25;0.00;0.00;0.62;0.00;0.00;0.62;2.70;1.93;;;24.70;31.00;;;;;;2249430;61;20364;-61